Pagina principale
METAR-TAF:

METAR-TAF

Aeroporti :

Aeroporto di Bastia Poretta

Bastia, Francia

latitudine: 42-33N, longitudine: 009-29E, altezza: 8 m

Osservazione

Il bollettino è stato emesso 11 minuti fa, alle 10:30 UTC
Vento 5 kt da sud/sud-ovest
Temperature 12°C
Umidità 50%
Pressione 1021 hPa
Visibilità 10 km o più
nessuna nube inferiore a 1500 m e nessun cumulonembo

METAR: LFKB 161030Z AUTO 20005KT CAVOK 12/02 Q1021 NOSIG

Ora: 11:41 (10:41 UTC)

Previsione

Il bollettino è stato emesso 2 ore e 41 minuti fa, alle 08:00 UTC
Previsione valida dal 16 alle 09 UTC al 17 alle 09 UTC
Vento 6 kt da est/sud-est
Visibilità 10 km o più
nessuna nube inferiore a 1500 m e nessun cumulonembo
Evoluzione graduale
dal 16 alle 18 UTC al 16 alle 20 UTC
Vento 4 kt da ovest/sud-ovest

TAF: LFKB 160800Z 1609/1709 12006KT CAVOK TX16/1613Z TN05/1703Z BECMG 1618/1620 24004KT

Osservazioni e previsioni meteorologiche di più di 4000 aeroporti (messaggi METAR e TAF).

Le stazioni disponibili sono rappresentate dai dischi gialli e rossi sulla carta.

Puntare il mouse per vedere il nome della stazione.

Clicca sopra per visualizzare le osservazioni e previsioni meteorologiche.

Per cambiare la mappa : fare clic sui pulsanti verdi con una croce nera per ingrandire, il pulsante verde con un trattino per diminuire, o sulla freccia verde per le mappe adiacenti.


METAR-TAF: